sensor_id;sensor_type;location;lat;lon;timestamp;P1;durP1;ratioP1;P2;durP2;ratioP2
38567;SDS011;24338;48.280;10.970;2023-05-29T00:01:36;12.15;;;6.70;;
38567;SDS011;24338;48.280;10.970;2023-05-29T00:04:04;10.65;;;5.80;;
38567;SDS011;24338;48.280;10.970;2023-05-29T00:06:31;10.70;;;6.25;;
38567;SDS011;24338;48.280;10.970;2023-05-29T00:08:58;12.88;;;5.85;;
38567;SDS011;24338;48.280;10.970;2023-05-29T00:11:25;9.07;;;5.47;;
38567;SDS011;24338;48.280;10.970;2023-05-29T00:13:52;10.38;;;6.13;;
38567;SDS011;24338;48.280;10.970;2023-05-29T00:16:19;11.38;;;5.80;;
38567;SDS011;24338;48.280;10.970;2023-05-29T00:18:46;12.38;;;5.57;;
38567;SDS011;24338;48.280;10.970;2023-05-29T00:21:13;12.75;;;5.97;;
38567;SDS011;24338;48.280;10.970;2023-05-29T00:23:40;9.32;;;5.85;;
38567;SDS011;24338;48.280;10.970;2023-05-29T00:26:08;11.80;;;6.05;;
38567;SDS011;24338;48.280;10.970;2023-05-29T00:28:35;12.23;;;6.32;;
38567;SDS011;24338;48.280;10.970;2023-05-29T00:31:02;12.48;;;5.75;;
38567;SDS011;24338;48.280;10.970;2023-05-29T00:33:29;11.70;;;6.15;;
38567;SDS011;24338;48.280;10.970;2023-05-29T00:35:56;11.13;;;7.20;;
38567;SDS011;24338;48.280;10.970;2023-05-29T00:38:23;12.75;;;5.90;;
38567;SDS011;24338;48.280;10.970;2023-05-29T00:40:50;14.18;;;5.65;;
38567;SDS011;24338;48.280;10.970;2023-05-29T00:43:17;12.57;;;6.25;;
38567;SDS011;24338;48.280;10.970;2023-05-29T00:45:44;11.20;;;6.80;;
38567;SDS011;24338;48.280;10.970;2023-05-29T00:48:11;12.52;;;6.20;;
38567;SDS011;24338;48.280;10.970;2023-05-29T00:50:38;10.23;;;5.82;;
38567;SDS011;24338;48.280;10.970;2023-05-29T00:53:05;10.75;;;6.88;;
38567;SDS011;24338;48.280;10.970;2023-05-29T00:55:33;17.88;;;6.68;;
38567;SDS011;24338;48.280;10.970;2023-05-29T00:58:01;10.98;;;6.10;;
38567;SDS011;24338;48.280;10.970;2023-05-29T01:00:28;13.38;;;7.03;;
38567;SDS011;24338;48.280;10.970;2023-05-29T01:02:56;14.45;;;7.93;;
38567;SDS011;24338;48.280;10.970;2023-05-29T01:05:24;9.93;;;6.55;;
38567;SDS011;24338;48.280;10.970;2023-05-29T01:07:51;13.07;;;7.03;;
38567;SDS011;24338;48.280;10.970;2023-05-29T01:10:18;13.45;;;6.80;;
38567;SDS011;24338;48.280;10.970;2023-05-29T01:12:50;9.90;;;6.32;;
38567;SDS011;24338;48.280;10.970;2023-05-29T01:26:12;11.05;;;6.32;;
38567;SDS011;24338;48.280;10.970;2023-05-29T01:29:00;9.85;;;5.25;;
38567;SDS011;24338;48.280;10.970;2023-05-29T01:31:30;11.32;;;6.65;;
38567;SDS011;24338;48.280;10.970;2023-05-29T01:33:59;13.75;;;6.55;;
38567;SDS011;24338;48.280;10.970;2023-05-29T01:36:26;11.68;;;6.38;;
38567;SDS011;24338;48.280;10.970;2023-05-29T01:38:55;12.80;;;6.00;;
38567;SDS011;24338;48.280;10.970;2023-05-29T01:41:24;11.23;;;5.88;;
38567;SDS011;24338;48.280;10.970;2023-05-29T01:43:51;11.77;;;6.30;;
38567;SDS011;24338;48.280;10.970;2023-05-29T01:46:20;11.45;;;5.85;;
38567;SDS011;24338;48.280;10.970;2023-05-29T01:48:48;13.05;;;6.18;;
38567;SDS011;24338;48.280;10.970;2023-05-29T01:51:15;10.95;;;5.82;;
38567;SDS011;24338;48.280;10.970;2023-05-29T01:53:42;10.05;;;6.40;;
38567;SDS011;24338;48.280;10.970;2023-05-29T01:56:10;10.02;;;5.72;;
38567;SDS011;24338;48.280;10.970;2023-05-29T01:58:40;12.18;;;6.75;;
38567;SDS011;24338;48.280;10.970;2023-05-29T02:01:07;11.23;;;5.85;;
38567;SDS011;24338;48.280;10.970;2023-05-29T02:03:35;14.07;;;6.95;;
38567;SDS011;24338;48.280;10.970;2023-05-29T02:06:02;10.38;;;6.50;;
38567;SDS011;24338;48.280;10.970;2023-05-29T02:08:29;14.05;;;6.00;;
38567;SDS011;24338;48.280;10.970;2023-05-29T02:10:56;10.05;;;6.00;;
38567;SDS011;24338;48.280;10.970;2023-05-29T02:13:23;12.02;;;6.03;;
38567;SDS011;24338;48.280;10.970;2023-05-29T02:15:49;10.68;;;6.15;;
38567;SDS011;24338;48.280;10.970;2023-05-29T02:18:16;12.50;;;5.78;;
38567;SDS011;24338;48.280;10.970;2023-05-29T02:20:43;10.35;;;5.97;;
38567;SDS011;24338;48.280;10.970;2023-05-29T02:23:11;13.05;;;6.85;;
38567;SDS011;24338;48.280;10.970;2023-05-29T02:25:38;11.88;;;5.45;;
38567;SDS011;24338;48.280;10.970;2023-05-29T02:28:06;10.90;;;5.55;;
38567;SDS011;24338;48.280;10.970;2023-05-29T02:30:34;10.25;;;6.35;;
38567;SDS011;24338;48.280;10.970;2023-05-29T02:33:01;10.07;;;5.97;;
38567;SDS011;24338;48.280;10.970;2023-05-29T02:35:28;13.75;;;6.82;;
38567;SDS011;24338;48.280;10.970;2023-05-29T02:37:55;9.43;;;5.65;;
38567;SDS011;24338;48.280;10.970;2023-05-29T02:40:22;10.70;;;6.18;;
38567;SDS011;24338;48.280;10.970;2023-05-29T02:42:49;11.13;;;5.90;;
38567;SDS011;24338;48.280;10.970;2023-05-29T02:45:17;11.85;;;6.43;;
38567;SDS011;24338;48.280;10.970;2023-05-29T02:47:44;10.30;;;5.68;;
38567;SDS011;24338;48.280;10.970;2023-05-29T02:50:11;8.70;;;6.15;;
38567;SDS011;24338;48.280;10.970;2023-05-29T02:52:40;11.70;;;6.18;;
38567;SDS011;24338;48.280;10.970;2023-05-29T02:55:08;12.55;;;6.20;;
38567;SDS011;24338;48.280;10.970;2023-05-29T02:57:35;13.75;;;6.63;;
38567;SDS011;24338;48.280;10.970;2023-05-29T03:00:02;11.23;;;6.30;;
38567;SDS011;24338;48.280;10.970;2023-05-29T03:02:33;13.43;;;7.55;;
38567;SDS011;24338;48.280;10.970;2023-05-29T03:05:03;14.05;;;6.65;;
38567;SDS011;24338;48.280;10.970;2023-05-29T03:07:31;13.68;;;6.85;;
38567;SDS011;24338;48.280;10.970;2023-05-29T03:09:57;17.70;;;7.13;;
38567;SDS011;24338;48.280;10.970;2023-05-29T03:12:25;10.00;;;6.63;;
38567;SDS011;24338;48.280;10.970;2023-05-29T03:14:54;10.30;;;5.65;;
38567;SDS011;24338;48.280;10.970;2023-05-29T03:17:22;13.07;;;7.00;;
38567;SDS011;24338;48.280;10.970;2023-05-29T03:19:49;10.85;;;5.30;;
38567;SDS011;24338;48.280;10.970;2023-05-29T03:22:17;11.63;;;6.05;;
38567;SDS011;24338;48.280;10.970;2023-05-29T03:24:44;11.70;;;6.72;;
38567;SDS011;24338;48.280;10.970;2023-05-29T03:27:11;15.30;;;6.53;;
38567;SDS011;24338;48.280;10.970;2023-05-29T03:29:38;11.02;;;5.97;;
38567;SDS011;24338;48.280;10.970;2023-05-29T03:32:05;10.88;;;6.20;;
38567;SDS011;24338;48.280;10.970;2023-05-29T03:34:32;14.77;;;5.93;;
38567;SDS011;24338;48.280;10.970;2023-05-29T03:36:59;10.10;;;6.28;;
38567;SDS011;24338;48.280;10.970;2023-05-29T03:39:26;13.45;;;6.57;;
38567;SDS011;24338;48.280;10.970;2023-05-29T03:41:53;11.40;;;6.40;;
38567;SDS011;24338;48.280;10.970;2023-05-29T03:44:20;11.73;;;6.32;;
38567;SDS011;24338;48.280;10.970;2023-05-29T03:46:47;12.27;;;6.55;;
38567;SDS011;24338;48.280;10.970;2023-05-29T03:49:14;10.68;;;5.47;;
38567;SDS011;24338;48.280;10.970;2023-05-29T03:51:40;10.45;;;5.85;;
38567;SDS011;24338;48.280;10.970;2023-05-29T03:54:07;11.18;;;5.03;;
38567;SDS011;24338;48.280;10.970;2023-05-29T03:56:34;15.07;;;6.63;;
38567;SDS011;24338;48.280;10.970;2023-05-29T03:59:02;13.63;;;7.03;;
38567;SDS011;24338;48.280;10.970;2023-05-29T04:01:29;16.23;;;7.55;;
38567;SDS011;24338;48.280;10.970;2023-05-29T04:03:56;13.82;;;5.72;;
38567;SDS011;24338;48.280;10.970;2023-05-29T04:06:23;12.40;;;6.88;;
38567;SDS011;24338;48.280;10.970;2023-05-29T04:08:50;10.18;;;5.75;;
38567;SDS011;24338;48.280;10.970;2023-05-29T04:11:16;11.57;;;6.13;;
38567;SDS011;24338;48.280;10.970;2023-05-29T04:13:47;10.45;;;5.50;;
38567;SDS011;24338;48.280;10.970;2023-05-29T04:16:14;10.63;;;6.28;;
38567;SDS011;24338;48.280;10.970;2023-05-29T04:18:41;11.80;;;6.45;;
38567;SDS011;24338;48.280;10.970;2023-05-29T04:21:08;12.02;;;6.55;;
38567;SDS011;24338;48.280;10.970;2023-05-29T04:23:36;13.65;;;6.20;;
38567;SDS011;24338;48.280;10.970;2023-05-29T04:26:03;11.68;;;5.90;;
38567;SDS011;24338;48.280;10.970;2023-05-29T04:28:32;12.23;;;6.45;;
38567;SDS011;24338;48.280;10.970;2023-05-29T04:30:59;11.88;;;6.82;;
38567;SDS011;24338;48.280;10.970;2023-05-29T04:33:28;11.02;;;6.68;;
38567;SDS011;24338;48.280;10.970;2023-05-29T04:35:55;11.77;;;6.40;;
38567;SDS011;24338;48.280;10.970;2023-05-29T04:38:22;13.75;;;6.57;;
38567;SDS011;24338;48.280;10.970;2023-05-29T04:40:52;13.63;;;6.68;;
38567;SDS011;24338;48.280;10.970;2023-05-29T04:43:24;10.80;;;6.35;;
38567;SDS011;24338;48.280;10.970;2023-05-29T04:45:52;10.60;;;6.18;;
38567;SDS011;24338;48.280;10.970;2023-05-29T04:48:20;11.30;;;6.63;;
38567;SDS011;24338;48.280;10.970;2023-05-29T04:50:46;11.40;;;5.78;;
38567;SDS011;24338;48.280;10.970;2023-05-29T04:53:14;9.82;;;7.50;;
38567;SDS011;24338;48.280;10.970;2023-05-29T04:55:41;11.40;;;6.50;;
38567;SDS011;24338;48.280;10.970;2023-05-29T04:58:08;12.27;;;6.80;;
38567;SDS011;24338;48.280;10.970;2023-05-29T05:00:35;9.20;;;6.30;;
38567;SDS011;24338;48.280;10.970;2023-05-29T05:03:02;12.98;;;7.60;;
38567;SDS011;24338;48.280;10.970;2023-05-29T05:05:29;12.85;;;6.45;;
38567;SDS011;24338;48.280;10.970;2023-05-29T05:07:56;12.40;;;6.10;;
38567;SDS011;24338;48.280;10.970;2023-05-29T05:10:23;13.98;;;6.22;;
38567;SDS011;24338;48.280;10.970;2023-05-29T05:12:50;10.95;;;5.88;;
38567;SDS011;24338;48.280;10.970;2023-05-29T05:15:16;9.88;;;6.78;;
38567;SDS011;24338;48.280;10.970;2023-05-29T05:17:43;10.52;;;6.60;;
38567;SDS011;24338;48.280;10.970;2023-05-29T05:20:11;11.27;;;6.88;;
38567;SDS011;24338;48.280;10.970;2023-05-29T05:22:38;12.98;;;6.60;;
38567;SDS011;24338;48.280;10.970;2023-05-29T05:25:05;11.80;;;6.90;;
38567;SDS011;24338;48.280;10.970;2023-05-29T05:27:33;10.55;;;6.40;;
38567;SDS011;24338;48.280;10.970;2023-05-29T05:30:00;13.35;;;6.43;;
38567;SDS011;24338;48.280;10.970;2023-05-29T05:32:27;10.43;;;6.10;;
38567;SDS011;24338;48.280;10.970;2023-05-29T05:34:53;10.63;;;5.45;;
38567;SDS011;24338;48.280;10.970;2023-05-29T05:37:20;14.45;;;6.28;;
38567;SDS011;24338;48.280;10.970;2023-05-29T05:39:50;11.20;;;6.32;;
38567;SDS011;24338;48.280;10.970;2023-05-29T05:42:17;14.65;;;6.45;;
38567;SDS011;24338;48.280;10.970;2023-05-29T05:44:43;9.02;;;5.90;;
38567;SDS011;24338;48.280;10.970;2023-05-29T05:47:11;9.18;;;5.20;;
38567;SDS011;24338;48.280;10.970;2023-05-29T05:49:38;12.98;;;6.03;;
38567;SDS011;24338;48.280;10.970;2023-05-29T05:52:05;10.93;;;5.35;;
38567;SDS011;24338;48.280;10.970;2023-05-29T05:54:32;15.48;;;7.10;;
38567;SDS011;24338;48.280;10.970;2023-05-29T05:56:59;11.05;;;6.70;;
38567;SDS011;24338;48.280;10.970;2023-05-29T05:59:26;13.90;;;6.72;;
38567;SDS011;24338;48.280;10.970;2023-05-29T06:01:53;11.00;;;5.78;;
38567;SDS011;24338;48.280;10.970;2023-05-29T06:04:21;11.57;;;6.20;;
38567;SDS011;24338;48.280;10.970;2023-05-29T06:06:47;10.45;;;5.80;;
38567;SDS011;24338;48.280;10.970;2023-05-29T06:09:14;11.57;;;5.72;;
38567;SDS011;24338;48.280;10.970;2023-05-29T06:11:41;11.00;;;6.60;;
38567;SDS011;24338;48.280;10.970;2023-05-29T06:14:08;13.45;;;7.32;;
38567;SDS011;24338;48.280;10.970;2023-05-29T06:16:35;10.48;;;6.22;;
38567;SDS011;24338;48.280;10.970;2023-05-29T06:19:02;11.30;;;6.55;;
38567;SDS011;24338;48.280;10.970;2023-05-29T06:21:31;9.57;;;5.38;;
38567;SDS011;24338;48.280;10.970;2023-05-29T06:23:58;12.27;;;6.30;;
38567;SDS011;24338;48.280;10.970;2023-05-29T06:26:25;10.10;;;5.28;;
38567;SDS011;24338;48.280;10.970;2023-05-29T06:28:53;9.52;;;5.40;;
38567;SDS011;24338;48.280;10.970;2023-05-29T06:31:20;11.25;;;5.82;;
38567;SDS011;24338;48.280;10.970;2023-05-29T06:33:47;11.30;;;5.43;;
38567;SDS011;24338;48.280;10.970;2023-05-29T06:36:14;12.27;;;5.85;;
38567;SDS011;24338;48.280;10.970;2023-05-29T06:38:45;10.25;;;4.93;;
38567;SDS011;24338;48.280;10.970;2023-05-29T06:41:15;12.23;;;4.78;;
38567;SDS011;24338;48.280;10.970;2023-05-29T06:43:42;11.20;;;5.10;;
38567;SDS011;24338;48.280;10.970;2023-05-29T06:46:10;12.13;;;4.97;;
38567;SDS011;24338;48.280;10.970;2023-05-29T06:48:37;9.38;;;5.00;;
38567;SDS011;24338;48.280;10.970;2023-05-29T06:51:04;8.00;;;4.88;;
38567;SDS011;24338;48.280;10.970;2023-05-29T06:53:35;8.75;;;4.88;;
38567;SDS011;24338;48.280;10.970;2023-05-29T06:56:02;7.75;;;4.13;;
38567;SDS011;24338;48.280;10.970;2023-05-29T06:58:30;8.10;;;4.85;;
38567;SDS011;24338;48.280;10.970;2023-05-29T07:00:57;7.05;;;4.63;;
38567;SDS011;24338;48.280;10.970;2023-05-29T07:03:29;8.65;;;4.63;;
38567;SDS011;24338;48.280;10.970;2023-05-29T07:05:56;10.80;;;4.90;;
38567;SDS011;24338;48.280;10.970;2023-05-29T07:08:24;10.05;;;5.10;;
38567;SDS011;24338;48.280;10.970;2023-05-29T07:10:51;9.98;;;4.50;;
38567;SDS011;24338;48.280;10.970;2023-05-29T07:13:18;7.93;;;4.60;;
38567;SDS011;24338;48.280;10.970;2023-05-29T07:15:45;6.93;;;3.65;;
38567;SDS011;24338;48.280;10.970;2023-05-29T07:18:12;10.45;;;4.93;;
38567;SDS011;24338;48.280;10.970;2023-05-29T07:20:41;10.80;;;4.88;;
38567;SDS011;24338;48.280;10.970;2023-05-29T07:23:08;7.72;;;4.53;;
38567;SDS011;24338;48.280;10.970;2023-05-29T07:25:34;7.82;;;4.88;;
38567;SDS011;24338;48.280;10.970;2023-05-29T07:28:01;7.85;;;3.75;;
38567;SDS011;24338;48.280;10.970;2023-05-29T07:30:47;9.35;;;4.35;;
38567;SDS011;24338;48.280;10.970;2023-05-29T07:33:13;7.00;;;4.13;;
38567;SDS011;24338;48.280;10.970;2023-05-29T07:35:40;7.57;;;3.72;;
38567;SDS011;24338;48.280;10.970;2023-05-29T07:38:07;7.65;;;4.35;;
38567;SDS011;24338;48.280;10.970;2023-05-29T07:40:34;9.63;;;4.28;;
38567;SDS011;24338;48.280;10.970;2023-05-29T07:43:01;7.93;;;4.20;;
38567;SDS011;24338;48.280;10.970;2023-05-29T07:45:28;7.63;;;4.25;;
38567;SDS011;24338;48.280;10.970;2023-05-29T07:47:55;10.00;;;4.70;;
38567;SDS011;24338;48.280;10.970;2023-05-29T07:50:22;6.70;;;3.83;;
38567;SDS011;24338;48.280;10.970;2023-05-29T07:52:49;7.18;;;4.03;;
38567;SDS011;24338;48.280;10.970;2023-05-29T07:55:16;8.68;;;4.25;;
38567;SDS011;24338;48.280;10.970;2023-05-29T07:57:43;8.98;;;4.10;;
38567;SDS011;24338;48.280;10.970;2023-05-29T08:00:10;9.70;;;3.65;;
38567;SDS011;24338;48.280;10.970;2023-05-29T08:02:39;6.10;;;3.58;;
38567;SDS011;24338;48.280;10.970;2023-05-29T08:05:06;6.95;;;3.92;;
38567;SDS011;24338;48.280;10.970;2023-05-29T08:07:36;7.25;;;3.28;;
38567;SDS011;24338;48.280;10.970;2023-05-29T08:10:03;9.65;;;3.80;;
38567;SDS011;24338;48.280;10.970;2023-05-29T08:12:31;8.57;;;4.05;;
38567;SDS011;24338;48.280;10.970;2023-05-29T08:15:01;6.43;;;3.20;;
38567;SDS011;24338;48.280;10.970;2023-05-29T08:17:29;7.30;;;3.63;;
38567;SDS011;24338;48.280;10.970;2023-05-29T08:19:56;6.40;;;3.78;;
38567;SDS011;24338;48.280;10.970;2023-05-29T08:22:27;7.47;;;3.50;;
38567;SDS011;24338;48.280;10.970;2023-05-29T08:24:56;9.80;;;4.07;;
38567;SDS011;24338;48.280;10.970;2023-05-29T08:27:22;7.63;;;3.63;;
38567;SDS011;24338;48.280;10.970;2023-05-29T08:29:49;6.50;;;3.05;;
38567;SDS011;24338;48.280;10.970;2023-05-29T08:32:16;4.50;;;3.08;;
38567;SDS011;24338;48.280;10.970;2023-05-29T08:34:43;9.68;;;4.15;;
38567;SDS011;24338;48.280;10.970;2023-05-29T08:37:12;8.13;;;3.40;;
38567;SDS011;24338;48.280;10.970;2023-05-29T08:39:39;9.13;;;3.70;;
38567;SDS011;24338;48.280;10.970;2023-05-29T08:44:41;4.88;;;2.83;;
38567;SDS011;24338;48.280;10.970;2023-05-29T08:47:16;8.57;;;3.45;;
38567;SDS011;24338;48.280;10.970;2023-05-29T08:49:50;6.57;;;3.47;;
38567;SDS011;24338;48.280;10.970;2023-05-29T08:52:21;11.75;;;3.95;;
38567;SDS011;24338;48.280;10.970;2023-05-29T08:57:18;8.52;;;3.70;;
38567;SDS011;24338;48.280;10.970;2023-05-29T08:59:47;6.85;;;3.20;;
38567;SDS011;24338;48.280;10.970;2023-05-29T09:02:17;6.75;;;4.10;;
38567;SDS011;24338;48.280;10.970;2023-05-29T09:04:44;5.88;;;3.42;;
38567;SDS011;24338;48.280;10.970;2023-05-29T09:07:19;7.53;;;3.25;;
38567;SDS011;24338;48.280;10.970;2023-05-29T09:09:46;7.43;;;4.32;;
38567;SDS011;24338;48.280;10.970;2023-05-29T09:12:13;7.90;;;3.95;;
38567;SDS011;24338;48.280;10.970;2023-05-29T09:14:41;8.52;;;3.95;;
38567;SDS011;24338;48.280;10.970;2023-05-29T09:17:09;6.82;;;3.08;;
38567;SDS011;24338;48.280;10.970;2023-05-29T09:19:37;5.82;;;3.55;;
38567;SDS011;24338;48.280;10.970;2023-05-29T09:22:07;7.55;;;3.28;;
38567;SDS011;24338;48.280;10.970;2023-05-29T09:24:35;7.65;;;3.45;;
38567;SDS011;24338;48.280;10.970;2023-05-29T09:27:04;8.32;;;3.28;;
38567;SDS011;24338;48.280;10.970;2023-05-29T09:29:37;7.47;;;3.58;;
38567;SDS011;24338;48.280;10.970;2023-05-29T09:32:06;6.97;;;3.60;;
38567;SDS011;24338;48.280;10.970;2023-05-29T09:34:38;6.32;;;3.53;;
38567;SDS011;24338;48.280;10.970;2023-05-29T09:37:06;6.88;;;3.80;;
38567;SDS011;24338;48.280;10.970;2023-05-29T09:42:11;7.22;;;3.75;;
38567;SDS011;24338;48.280;10.970;2023-05-29T09:44:42;5.95;;;3.17;;
38567;SDS011;24338;48.280;10.970;2023-05-29T09:47:20;5.72;;;3.47;;
38567;SDS011;24338;48.280;10.970;2023-05-29T09:49:48;6.85;;;3.20;;
38567;SDS011;24338;48.280;10.970;2023-05-29T09:52:15;7.45;;;4.15;;
38567;SDS011;24338;48.280;10.970;2023-05-29T09:54:47;5.20;;;3.65;;
38567;SDS011;24338;48.280;10.970;2023-05-29T09:57:15;8.93;;;3.28;;
38567;SDS011;24338;48.280;10.970;2023-05-29T09:59:43;8.93;;;3.58;;
38567;SDS011;24338;48.280;10.970;2023-05-29T10:02:18;6.80;;;3.67;;
38567;SDS011;24338;48.280;10.970;2023-05-29T10:04:45;6.82;;;3.17;;
38567;SDS011;24338;48.280;10.970;2023-05-29T10:07:19;6.50;;;3.25;;
38567;SDS011;24338;48.280;10.970;2023-05-29T10:10:02;5.95;;;2.92;;
38567;SDS011;24338;48.280;10.970;2023-05-29T10:12:32;5.40;;;3.40;;
38567;SDS011;24338;48.280;10.970;2023-05-29T10:15:03;6.00;;;3.33;;
38567;SDS011;24338;48.280;10.970;2023-05-29T10:17:36;6.30;;;3.15;;
38567;SDS011;24338;48.280;10.970;2023-05-29T10:20:05;7.05;;;3.42;;
38567;SDS011;24338;48.280;10.970;2023-05-29T10:22:35;5.93;;;2.85;;
38567;SDS011;24338;48.280;10.970;2023-05-29T10:25:08;8.20;;;3.67;;
38567;SDS011;24338;48.280;10.970;2023-05-29T10:27:37;5.85;;;2.80;;
38567;SDS011;24338;48.280;10.970;2023-05-29T10:35:46;5.05;;;2.75;;
38567;SDS011;24338;48.280;10.970;2023-05-29T10:38:37;5.50;;;3.25;;
38567;SDS011;24338;48.280;10.970;2023-05-29T10:43:53;6.60;;;3.40;;
38567;SDS011;24338;48.280;10.970;2023-05-29T10:46:21;5.72;;;2.90;;
38567;SDS011;24338;48.280;10.970;2023-05-29T10:49:18;5.63;;;3.10;;
38567;SDS011;24338;48.280;10.970;2023-05-29T10:51:46;9.20;;;3.22;;
38567;SDS011;24338;48.280;10.970;2023-05-29T10:54:14;6.43;;;2.80;;
38567;SDS011;24338;48.280;10.970;2023-05-29T10:56:43;8.15;;;3.70;;
38567;SDS011;24338;48.280;10.970;2023-05-29T10:59:17;5.50;;;2.92;;
38567;SDS011;24338;48.280;10.970;2023-05-29T11:01:44;7.78;;;3.33;;
38567;SDS011;24338;48.280;10.970;2023-05-29T11:06:46;6.25;;;3.10;;
38567;SDS011;24338;48.280;10.970;2023-05-29T11:09:30;6.60;;;3.08;;
38567;SDS011;24338;48.280;10.970;2023-05-29T11:14:56;4.55;;;2.95;;
38567;SDS011;24338;48.280;10.970;2023-05-29T11:20:04;6.05;;;3.42;;
38567;SDS011;24338;48.280;10.970;2023-05-29T11:25:25;5.50;;;3.00;;
38567;SDS011;24338;48.280;10.970;2023-05-29T11:27:53;7.63;;;3.72;;
38567;SDS011;24338;48.280;10.970;2023-05-29T11:30:21;5.57;;;3.28;;
38567;SDS011;24338;48.280;10.970;2023-05-29T11:32:48;8.02;;;2.97;;
38567;SDS011;24338;48.280;10.970;2023-05-29T11:35:21;6.22;;;3.00;;
38567;SDS011;24338;48.280;10.970;2023-05-29T11:37:49;8.07;;;2.97;;
38567;SDS011;24338;48.280;10.970;2023-05-29T11:40:16;7.47;;;3.15;;
38567;SDS011;24338;48.280;10.970;2023-05-29T11:42:47;5.05;;;2.78;;
38567;SDS011;24338;48.280;10.970;2023-05-29T11:45:16;9.02;;;3.10;;
38567;SDS011;24338;48.280;10.970;2023-05-29T11:50:23;4.15;;;2.95;;
38567;SDS011;24338;48.280;10.970;2023-05-29T11:52:51;4.53;;;2.80;;
38567;SDS011;24338;48.280;10.970;2023-05-29T11:55:19;5.18;;;2.75;;
38567;SDS011;24338;48.280;10.970;2023-05-29T11:57:47;5.70;;;3.00;;
38567;SDS011;24338;48.280;10.970;2023-05-29T12:00:15;7.57;;;3.58;;
38567;SDS011;24338;48.280;10.970;2023-05-29T12:02:43;10.90;;;3.65;;
38567;SDS011;24338;48.280;10.970;2023-05-29T12:05:13;5.55;;;3.30;;
38567;SDS011;24338;48.280;10.970;2023-05-29T12:07:52;4.43;;;2.42;;
38567;SDS011;24338;48.280;10.970;2023-05-29T12:10:20;4.75;;;2.70;;
38567;SDS011;24338;48.280;10.970;2023-05-29T12:12:48;7.10;;;3.15;;
38567;SDS011;24338;48.280;10.970;2023-05-29T12:15:15;6.03;;;3.03;;
38567;SDS011;24338;48.280;10.970;2023-05-29T12:17:44;4.90;;;3.10;;
38567;SDS011;24338;48.280;10.970;2023-05-29T12:20:12;5.22;;;3.17;;
38567;SDS011;24338;48.280;10.970;2023-05-29T12:22:41;7.60;;;3.20;;
38567;SDS011;24338;48.280;10.970;2023-05-29T12:25:16;5.80;;;2.67;;
38567;SDS011;24338;48.280;10.970;2023-05-29T12:27:45;4.65;;;2.83;;
38567;SDS011;24338;48.280;10.970;2023-05-29T12:30:14;5.95;;;2.90;;
38567;SDS011;24338;48.280;10.970;2023-05-29T12:32:59;5.10;;;2.67;;
38567;SDS011;24338;48.280;10.970;2023-05-29T12:35:28;5.00;;;2.80;;
38567;SDS011;24338;48.280;10.970;2023-05-29T12:40:23;6.35;;;2.90;;
38567;SDS011;24338;48.280;10.970;2023-05-29T12:45:38;4.90;;;3.05;;
38567;SDS011;24338;48.280;10.970;2023-05-29T12:48:06;5.70;;;3.00;;
38567;SDS011;24338;48.280;10.970;2023-05-29T12:50:34;6.10;;;3.00;;
38567;SDS011;24338;48.280;10.970;2023-05-29T12:53:12;5.00;;;3.15;;
38567;SDS011;24338;48.280;10.970;2023-05-29T12:55:41;6.32;;;2.95;;
38567;SDS011;24338;48.280;10.970;2023-05-29T12:58:09;5.78;;;2.70;;
38567;SDS011;24338;48.280;10.970;2023-05-29T13:00:41;5.05;;;2.95;;
38567;SDS011;24338;48.280;10.970;2023-05-29T13:03:08;5.35;;;2.80;;
38567;SDS011;24338;48.280;10.970;2023-05-29T13:05:37;6.68;;;2.75;;
38567;SDS011;24338;48.280;10.970;2023-05-29T13:08:06;13.10;;;3.80;;
38567;SDS011;24338;48.280;10.970;2023-05-29T13:10:34;7.15;;;3.30;;
38567;SDS011;24338;48.280;10.970;2023-05-29T13:13:01;5.93;;;3.63;;
38567;SDS011;24338;48.280;10.970;2023-05-29T13:15:29;6.28;;;2.70;;
38567;SDS011;24338;48.280;10.970;2023-05-29T13:17:59;6.22;;;3.22;;
38567;SDS011;24338;48.280;10.970;2023-05-29T13:20:26;6.70;;;2.90;;
38567;SDS011;24338;48.280;10.970;2023-05-29T13:22:53;5.90;;;2.80;;
38567;SDS011;24338;48.280;10.970;2023-05-29T13:25:20;4.22;;;2.92;;
38567;SDS011;24338;48.280;10.970;2023-05-29T13:27:50;5.47;;;3.30;;
38567;SDS011;24338;48.280;10.970;2023-05-29T13:30:17;5.72;;;2.90;;
38567;SDS011;24338;48.280;10.970;2023-05-29T13:32:44;4.45;;;2.65;;
38567;SDS011;24338;48.280;10.970;2023-05-29T13:35:11;6.40;;;3.05;;
38567;SDS011;24338;48.280;10.970;2023-05-29T13:37:38;7.60;;;3.00;;
38567;SDS011;24338;48.280;10.970;2023-05-29T13:40:06;9.00;;;3.50;;
38567;SDS011;24338;48.280;10.970;2023-05-29T13:42:36;8.48;;;2.97;;
38567;SDS011;24338;48.280;10.970;2023-05-29T13:45:05;6.18;;;2.78;;
38567;SDS011;24338;48.280;10.970;2023-05-29T13:47:34;4.90;;;2.95;;
38567;SDS011;24338;48.280;10.970;2023-05-29T13:50:01;4.88;;;2.70;;
38567;SDS011;24338;48.280;10.970;2023-05-29T13:52:29;5.43;;;3.00;;
38567;SDS011;24338;48.280;10.970;2023-05-29T13:54:56;6.97;;;3.17;;
38567;SDS011;24338;48.280;10.970;2023-05-29T13:57:25;5.43;;;2.30;;
38567;SDS011;24338;48.280;10.970;2023-05-29T13:59:52;5.15;;;2.40;;
38567;SDS011;24338;48.280;10.970;2023-05-29T14:02:19;5.68;;;3.00;;
38567;SDS011;24338;48.280;10.970;2023-05-29T14:04:48;5.82;;;3.45;;
38567;SDS011;24338;48.280;10.970;2023-05-29T14:07:15;6.72;;;3.20;;
38567;SDS011;24338;48.280;10.970;2023-05-29T14:09:42;4.72;;;2.15;;
38567;SDS011;24338;48.280;10.970;2023-05-29T14:12:09;5.00;;;2.53;;
38567;SDS011;24338;48.280;10.970;2023-05-29T14:14:37;4.85;;;2.63;;
38567;SDS011;24338;48.280;10.970;2023-05-29T14:17:04;4.75;;;2.58;;
38567;SDS011;24338;48.280;10.970;2023-05-29T14:19:32;5.50;;;2.78;;
38567;SDS011;24338;48.280;10.970;2023-05-29T14:21:58;4.18;;;2.53;;
38567;SDS011;24338;48.280;10.970;2023-05-29T14:24:27;4.13;;;2.35;;
38567;SDS011;24338;48.280;10.970;2023-05-29T14:26:54;5.20;;;2.63;;
38567;SDS011;24338;48.280;10.970;2023-05-29T14:29:21;4.57;;;2.40;;
38567;SDS011;24338;48.280;10.970;2023-05-29T14:31:48;10.52;;;3.67;;
38567;SDS011;24338;48.280;10.970;2023-05-29T14:34:16;4.80;;;2.95;;
38567;SDS011;24338;48.280;10.970;2023-05-29T14:36:43;7.18;;;2.47;;
38567;SDS011;24338;48.280;10.970;2023-05-29T14:39:11;5.47;;;2.90;;
38567;SDS011;24338;48.280;10.970;2023-05-29T14:41:41;4.50;;;2.70;;
38567;SDS011;24338;48.280;10.970;2023-05-29T14:44:09;5.13;;;2.63;;
38567;SDS011;24338;48.280;10.970;2023-05-29T14:46:37;6.72;;;2.80;;
38567;SDS011;24338;48.280;10.970;2023-05-29T14:49:05;4.55;;;2.58;;
38567;SDS011;24338;48.280;10.970;2023-05-29T14:51:32;7.15;;;3.08;;
38567;SDS011;24338;48.280;10.970;2023-05-29T14:53:59;5.82;;;2.67;;
38567;SDS011;24338;48.280;10.970;2023-05-29T14:56:26;6.60;;;2.45;;
38567;SDS011;24338;48.280;10.970;2023-05-29T14:58:54;4.18;;;2.67;;
38567;SDS011;24338;48.280;10.970;2023-05-29T15:01:21;5.57;;;2.67;;
38567;SDS011;24338;48.280;10.970;2023-05-29T15:03:48;6.75;;;3.08;;
38567;SDS011;24338;48.280;10.970;2023-05-29T15:06:15;5.05;;;2.60;;
38567;SDS011;24338;48.280;10.970;2023-05-29T15:08:42;5.75;;;2.58;;
38567;SDS011;24338;48.280;10.970;2023-05-29T15:11:10;5.10;;;2.97;;
38567;SDS011;24338;48.280;10.970;2023-05-29T15:13:39;5.15;;;2.60;;
38567;SDS011;24338;48.280;10.970;2023-05-29T15:16:06;3.92;;;2.30;;
38567;SDS011;24338;48.280;10.970;2023-05-29T15:18:34;7.25;;;3.00;;
38567;SDS011;24338;48.280;10.970;2023-05-29T15:21:01;6.28;;;3.15;;